Аэропорт: Остафьево. Москва

ICAO: UUMO

METAR:
2020-06-04 03:00:00
UUMO 040300Z 25003MPS 9999 OVC003 13/13 Q1000 R08/290050 NOSIG RMK QBB110 QFE736/0981
METAR:
Информация по данной станции не доступна